METAR AND TAF INFORMATION
METAR FOR EDDV
ADDS - METARS form results

(2123 UTC 26 March 2019)
Data provider http://aviationweather.gov/metar/data/
 
METAR text: EDDV 262120Z 27006KT CAVOK 05/04 Q1029
Conditions at: EDDV (HANNOVER , DE) observed 2120 UTC 26 March 2019
Temperature: 5.0°C (41°F)
Dewpoint: 4.0°C (39°F) [RH = 93%]
Pressure (altimeter): 30.38 inches Hg (1029.0 mb)
Winds: from the W (270 degrees) at 7 MPH (6 knots; 3.1 m/s)
Visibility: 6 or more miles (10+ km)
Ceiling: ceiling and visibility are OK
Clouds: unknown
Weather: no significant weather observed at this time

METAR text: EDDV 262050Z 28007KT CAVOK 04/04 Q1029 NOSIG
Conditions at: EDDV (HANNOVER , DE) observed 2050 UTC 26 March 2019
Temperature: 4.0°C (39°F)
Dewpoint: 4.0°C (39°F) [RH = 100%]
Pressure (altimeter): 30.38 inches Hg (1029.0 mb)
Winds: from the W (280 degrees) at 8 MPH (7 knots; 3.6 m/s)
Visibility: 6 or more miles (10+ km)
Ceiling: ceiling and visibility are OK
Clouds: unknown
Weather: no significant weather observed at this time

Forecast for: EDDV (HANNOVER , DE)
Text: TAF EDDV 261700Z 2618/2718 28010KT 9999 FEW015 BKN030
Forecast period: 1800 UTC 26 March 2019 to 1800 UTC 27 March 2019
Forecast type: FROM: standard forecast or significant change
Winds: from the W (280 degrees) at 12 MPH (10 knots; 5.1 m/s)
Visibility: 6 or more miles 10+ km)
Ceiling: 3000 feet AGL
Clouds: few clouds at 1500 feet AGL
broken clouds at 3000 feet AGL
Weather: no significant weather forecast for this period
Text: TEMPO 2700/2706 BKN011
Forecast period: 0000 to 0600 UTC 27 March 2019
Forecast type: TEMPORARY: The following changes expected for less than half the time period
Visibility: missing
Ceiling: 1100 feet AGL
Clouds: broken clouds at 1100 feet AGL
Weather: no significant weather forecast for this period
Text: PROB30
Forecast period: 0000 to 0600 UTC 27 March 2019
Forecast type: TEMPORARY: The following changes expected for less than half the time period
Visibility: 2.49 miles (4.01 km)
Ceiling: 300 feet AGL
Clouds: broken clouds at 300 feet AGL
Weather: BR  (mist)
Text: TEMPO 2700/2706 4000 BR BKN003
Forecast period: 0700 to 1800 UTC 27 March 2019
Forecast type: TEMPORARY: The following changes expected for less than half the time period
Visibility: 2.49 miles (4.01 km)
Ceiling: 700 feet AGL
Clouds: broken clouds at 700 feet AGL
Weather: -RA -DZ  (light rain, light drizzle)

 AIRPORT MAP

 RUNWAY INFORMATION

 AIRPORT FREQUENCIES
Type APP Name DIRECTOR Frequency 119.6 MHZ
Type ATIS Name ATIS Frequency 132.125 MHZ
Type GND Name GND Frequency 121.95 MHZ
Type INFO Name BREMEN INF Frequency 119.825 MHZ
Type RDR Name BREMEN RAD Frequency 131.325 MHZ
Type TWR Name TWR Frequency 120.175 MHZ

 AIRPORT NEAR NAVIGATION AIDS
Type NDB Name Hannover Frequency 320 KHZ
Type DME Name Hannover Frequency 113950 KHZ
Type NDB Name Hannover Frequency 332 KHZ
Type DME Name Hannover Frequency 116900 KHZ
Type NDB Name Hannover Frequency 358 KHZ



2018 Air Astana Virtual Airline